Time;durP1;ratioP1;P1;durP2;ratioP2;P2;SDS_P1;SDS_P2;PMS_P1;PMS_P2;Temp;Humidity;BMP_temperature;BMP_pressure;BME280_temperature;BME280_humidity;BME280_pressure;Samples;Min_cycle;Max_cycle;Signal;HPM_P1;HPM_P2
2022/04/17 00:01:37;;;;;;;2.95;2.17;;;;;;;2.72;100.00;99879.22;10492810;28;20185;-58
2022/04/17 00:06:42;;;;;;;2.78;2.00;;;;;;;2.68;100.00;99882.97;10491798;28;20674;-59
2022/04/17 00:11:46;;;;;;;2.45;2.05;;;;;;;2.62;100.00;99877.94;10493724;28;20090;-59
2022/04/17 00:16:49;;;;;;;2.78;2.03;;;;;;;2.55;100.00;99871.19;10497029;28;20175;-58
2022/04/17 00:21:53;;;;;;;3.25;2.38;;;;;;;2.51;100.00;99869.63;10492968;28;20045;-59
2022/04/17 00:26:57;;;;;;;3.30;2.40;;;;;;;2.44;100.00;99861.06;10492250;28;20521;-61
2022/04/17 00:32:00;;;;;;;4.47;3.20;;;;;;;2.39;100.00;99866.63;10496366;28;20048;-60
2022/04/17 00:37:05;;;;;;;3.72;2.85;;;;;;;2.33;100.00;99858.06;10491641;28;20142;-59
2022/04/17 00:42:09;;;;;;;4.63;3.08;;;;;;;2.27;100.00;99864.53;10494978;28;20054;-60
2022/04/17 00:47:15;;;;;;;4.55;3.00;;;;;;;2.18;100.00;99859.63;10493054;28;20048;-59
2022/04/17 00:52:21;;;;;;;5.18;3.20;;;;;;;2.11;100.00;99859.09;10494314;28;20138;-59
2022/04/17 00:57:24;;;;;;;4.05;2.80;;;;;;;2.06;100.00;99855.78;10499324;28;20117;-60
2022/04/17 01:02:27;;;;;;;4.50;2.92;;;;;;;1.97;100.00;99863.25;10490683;28;20119;-58
2022/04/17 01:07:32;;;;;;;5.05;3.60;;;;;;;1.92;100.00;99851.09;10491392;28;20064;-59
2022/04/17 01:12:36;;;;;;;3.78;3.10;;;;;;;1.82;100.00;99840.88;10489050;28;20123;-59
2022/04/17 01:17:39;;;;;;;4.70;3.50;;;;;;;1.75;100.00;99841.25;10488089;28;20045;-60
2022/04/17 01:22:47;;;;;;;4.78;3.60;;;;;;;1.66;100.00;99839.88;10490741;28;20052;-59
2022/04/17 01:27:51;;;;;;;4.13;3.08;;;;;;;1.55;100.00;99829.72;10490099;28;20076;-58
2022/04/17 01:32:54;;;;;;;3.58;2.60;;;;;;;1.48;100.00;99826.47;10491443;28;20048;-58
2022/04/17 01:37:59;;;;;;;3.38;2.50;;;;;;;1.40;100.00;99828.63;10489154;28;20048;-60
2022/04/17 01:43:02;;;;;;;3.88;2.53;;;;;;;1.32;100.00;99820.97;10489652;28;20053;-59
2022/04/17 01:48:06;;;;;;;4.05;2.72;;;;;;;1.26;100.00;99815.06;10489910;28;20966;-60
2022/04/17 01:53:10;;;;;;;3.70;2.85;;;;;;;1.17;100.00;99809.25;10487493;28;20048;-60
2022/04/17 01:58:13;;;;;;;3.67;2.85;;;;;;;1.11;100.00;99812.19;10490532;28;20075;-58
2022/04/17 02:03:16;;;;;;;5.00;3.45;;;;;;;1.04;100.00;99816.91;10488504;28;20063;-59
2022/04/17 02:08:21;;;;;;;4.43;3.30;;;;;;;1.01;100.00;99805.53;10488867;28;20492;-59
2022/04/17 02:13:24;;;;;;;4.07;3.00;;;;;;;0.97;100.00;99807.47;10488179;28;20411;-59
2022/04/17 02:18:27;;;;;;;5.95;2.88;;;;;;;0.96;100.00;99802.22;10487084;28;20130;-61
2022/04/17 02:23:34;;;;;;;3.15;2.80;;;;;;;0.94;100.00;99790.81;10488137;28;20087;-59
2022/04/17 02:28:40;;;;;;;4.25;3.20;;;;;;;0.86;100.00;99801.75;10484031;28;20126;-59
2022/04/17 02:33:43;;;;;;;4.70;3.33;;;;;;;0.80;100.00;99800.22;10488011;28;20071;-60
2022/04/17 02:38:47;;;;;;;4.85;3.60;;;;;;;0.74;100.00;99797.84;10496196;28;20040;-58
2022/04/17 02:43:50;;;;;;;3.88;3.33;;;;;;;0.68;100.00;99798.09;10496727;28;20048;-57
2022/04/17 02:48:53;;;;;;;4.70;3.30;;;;;;;0.55;100.00;99800.41;10496673;28;20044;-58
2022/04/17 02:53:58;;;;;;;8.55;4.13;;;;;;;0.48;100.00;99798.91;10505028;28;20566;-59
2022/04/17 02:59:01;;;;;;;6.60;4.75;;;;;;;0.40;100.00;99809.84;10495470;28;20123;-58
2022/04/17 03:09:26;;;;;;;7.53;4.30;;;;;;;0.26;100.00;99792.72;10489735;28;20508;-58
2022/04/17 03:14:29;;;;;;;7.03;5.53;;;;;;;0.22;100.00;99795.56;10324044;28;5001666;-59
2022/04/17 03:19:32;;;;;;;8.80;5.82;;;;;;;0.16;100.00;99791.38;10499646;28;20054;-60
2022/04/17 03:24:36;;;;;;;8.35;5.15;;;;;;;0.04;100.00;99792.69;10499122;28;20058;-59
2022/04/17 03:29:39;;;;;;;6.35;4.35;;;;;;;-0.05;100.00;99788.63;10496270;28;20127;-59
2022/04/17 03:34:42;;;;;;;6.38;4.15;;;;;;;-0.13;100.00;99785.41;10492367;28;20416;-62
2022/04/17 03:39:48;;;;;;;5.50;4.00;;;;;;;-0.14;100.00;99794.28;10495934;28;20048;-59
2022/04/17 03:44:51;;;;;;;4.32;3.67;;;;;;;-0.20;100.00;99789.22;10496526;28;20115;-59
2022/04/17 03:49:54;;;;;;;6.55;3.72;;;;;;;-0.21;100.00;99787.50;10494768;28;20046;-57
2022/04/17 03:54:58;;;;;;;5.68;3.97;;;;;;;-0.24;100.00;99779.66;10494579;28;20045;-58
2022/04/17 04:00:02;;;;;;;5.32;3.92;;;;;;;-0.30;100.00;99771.97;10493770;28;20119;-58
2022/04/17 04:05:13;;;;;;;7.25;4.88;;;;;;;-0.35;100.00;99773.00;10492307;28;20056;-57
2022/04/17 04:10:17;;;;;;;7.70;4.65;;;;;;;-0.36;100.00;99773.06;10489912;28;20068;-59
2022/04/17 04:15:20;;;;;;;7.68;4.35;;;;;;;-0.42;100.00;99760.94;10493442;28;20102;-54
2022/04/17 04:20:23;;;;;;;7.40;4.50;;;;;;;-0.47;100.00;99763.72;10493251;28;20075;-55
2022/04/17 04:25:28;;;;;;;5.70;4.10;;;;;;;-0.51;100.00;99761.25;10492281;28;20534;-59
2022/04/17 04:30:31;;;;;;;7.05;3.97;;;;;;;-0.50;100.00;99766.50;10494091;28;20043;-57
2022/04/17 04:35:34;;;;;;;4.70;3.78;;;;;;;-0.56;100.00;99761.44;10493322;28;20051;-57
2022/04/17 04:40:38;;;;;;;5.43;3.72;;;;;;;-0.59;100.00;99765.97;10493626;28;20032;-59
2022/04/17 04:51:02;;;;;;;4.40;4.00;;;;;;;-0.62;100.00;99759.88;10490538;28;21088;-61
2022/04/17 04:56:07;;;;;;;5.72;4.10;;;;;;;-0.63;100.00;99766.09;10490761;28;20055;-60
2022/04/17 05:01:10;;;;;;;4.72;3.80;;;;;;;-0.62;100.00;99773.13;10493023;28;20139;-56
2022/04/17 05:06:13;;;;;;;5.78;4.28;;;;;;;-0.59;100.00;99769.50;10492743;28;20523;-57
2022/04/17 05:11:18;;;;;;;6.85;4.53;;;;;;;-0.57;100.00;99758.84;10496489;28;20041;-59
2022/04/17 05:16:21;;;;;;;6.18;4.90;;;;;;;-0.53;100.00;99761.31;10495089;28;20071;-58
2022/04/17 05:21:31;;;;;;;5.78;4.15;;;;;;;-0.48;100.00;99742.63;10498256;28;20062;-56
2022/04/17 05:26:38;;;;;;;4.85;4.13;;;;;;;-0.44;100.00;99754.81;10544136;28;20036;-59
2022/04/17 05:31:41;;;;;;;4.75;3.85;;;;;;;-0.42;100.00;99742.41;10549883;28;20017;-60
2022/04/17 05:36:44;;;;;;;4.97;3.97;;;;;;;-0.33;100.00;99733.22;10534355;28;20050;-62
2022/04/17 05:41:49;;;;;;;4.60;3.58;;;;;;;-0.28;100.00;99743.63;10491045;28;20055;-58
2022/04/17 05:46:52;;;;;;;5.10;3.80;;;;;;;-0.25;100.00;99735.56;10489365;28;20057;-59
2022/04/17 05:51:57;;;;;;;5.18;3.92;;;;;;;-0.21;100.00;99742.47;10489844;28;20045;-59
2022/04/17 05:57:02;;;;;;;4.78;4.00;;;;;;;-0.15;100.00;99739.56;10488514;28;20055;-58
2022/04/17 06:02:05;;;;;;;4.63;3.97;;;;;;;-0.08;100.00;99750.78;10489740;28;20040;-60
2022/04/17 06:07:13;;;;;;;4.40;4.00;;;;;;;0.02;100.00;99740.69;10497723;28;20516;-58
2022/04/17 06:12:19;;;;;;;7.00;5.18;;;;;;;0.11;100.00;99748.25;10490323;28;20517;-56
2022/04/17 06:17:26;;;;;;;6.45;4.53;;;;;;;0.22;100.00;99755.78;10490811;28;20040;-60
2022/04/17 06:22:29;;;;;;;5.97;4.50;;;;;;;0.32;100.00;99758.91;10489423;28;20061;-59
2022/04/17 06:27:41;;;;;;;4.85;4.35;;;;;;;0.43;100.00;99765.50;10488717;28;20111;-58
2022/04/17 06:32:44;;;;;;;6.20;5.10;;;;;;;0.58;100.00;99765.81;10495025;28;20049;-60
2022/04/17 06:37:49;;;;;;;5.97;4.68;;;;;;;0.75;100.00;99768.59;10490417;28;20465;-60
2022/04/17 06:42:55;;;;;;;4.68;4.00;;;;;;;0.90;100.00;99777.66;10490213;28;20115;-61
2022/04/17 06:47:58;;;;;;;5.28;4.35;;;;;;;1.07;100.00;99784.03;10490759;28;20051;-58
2022/04/17 06:53:01;;;;;;;5.28;4.15;;;;;;;1.28;100.00;99773.41;10489736;28;20082;-61
2022/04/17 06:58:07;;;;;;;5.38;4.40;;;;;;;1.53;100.00;99778.44;10488721;28;20177;-61
2022/04/17 07:03:10;;;;;;;5.50;4.15;;;;;;;1.81;100.00;99778.06;10488021;28;20047;-59
2022/04/17 07:08:14;;;;;;;6.05;3.97;;;;;;;2.03;100.00;99768.19;10487209;28;20048;-59
2022/04/17 07:13:19;;;;;;;4.93;4.00;;;;;;;2.22;100.00;99778.78;10488065;28;20531;-58
2022/04/17 07:18:22;;;;;;;3.92;3.53;;;;;;;2.44;100.00;99774.13;10486884;28;20052;-59
2022/04/17 07:23:26;;;;;;;5.20;3.42;;;;;;;2.70;100.00;99771.13;10491985;28;21350;-61
2022/04/17 07:28:30;;;;;;;4.97;3.65;;;;;;;2.93;100.00;99772.59;10493896;28;20055;-58
2022/04/17 07:33:33;;;;;;;4.53;3.35;;;;;;;3.15;100.00;99766.16;10495232;28;20041;-58
2022/04/17 07:38:36;;;;;;;3.35;2.63;;;;;;;3.54;100.00;99754.31;10493353;28;20123;-61
2022/04/17 07:43:41;;;;;;;3.78;2.35;;;;;;;3.93;100.00;99745.06;10495527;28;21372;-62
2022/04/17 07:48:44;;;;;;;2.88;2.28;;;;;;;4.21;100.00;99751.47;10500334;28;20049;-58
2022/04/17 07:53:48;;;;;;;2.42;2.15;;;;;;;4.51;100.00;99745.34;10494695;28;20040;-60
2022/04/17 07:58:52;;;;;;;3.03;2.20;;;;;;;4.71;100.00;99757.47;10496108;28;20155;-61
2022/04/17 08:03:55;;;;;;;2.60;2.08;;;;;;;4.92;100.00;99766.03;10495943;28;20048;-59
2022/04/17 08:08:58;;;;;;;2.22;1.80;;;;;;;5.16;100.00;99760.16;10494292;28;20082;-57
2022/04/17 08:14:03;;;;;;;2.63;2.00;;;;;;;5.36;100.00;99758.06;10492235;28;20128;-61
2022/04/17 08:19:06;;;;;;;2.47;1.95;;;;;;;5.61;100.00;99751.19;10492373;28;20051;-61
2022/04/17 08:24:09;;;;;;;2.72;2.08;;;;;;;5.88;100.00;99729.00;10495423;28;20043;-62
2022/04/17 08:29:14;;;;;;;2.88;1.50;;;;;;;6.15;100.00;99732.59;10493647;28;20054;-58
2022/04/17 08:34:18;;;;;;;2.65;1.35;;;;;;;6.43;100.00;99733.41;10493000;28;20173;-56
2022/04/17 08:39:21;;;;;;;2.08;1.50;;;;;;;6.69;100.00;99727.28;10492705;28;20054;-56
2022/04/17 08:44:25;;;;;;;2.92;1.90;;;;;;;6.87;100.00;99717.16;10493703;28;20043;-55
2022/04/17 08:49:28;;;;;;;1.90;1.40;;;;;;;7.00;92.14;99707.25;10490276;28;20131;-58
2022/04/17 08:54:32;;;;;;;2.10;1.50;;;;;;;7.25;84.22;99708.22;10490304;28;20046;-56
2022/04/17 08:59:37;;;;;;;1.40;1.30;;;;;;;7.45;82.06;99704.13;10493268;28;20428;-64
2022/04/17 09:04:41;;;;;;;2.13;1.30;;;;;;;7.54;73.00;99700.78;10491933;28;20091;-58
2022/04/17 09:09:52;;;;;;;1.70;1.10;;;;;;;7.68;70.97;99677.47;10493083;28;20521;-58
2022/04/17 09:14:58;;;;;;;1.55;1.13;;;;;;;7.73;70.20;99678.00;10491261;28;21134;-59
2022/04/17 09:20:02;;;;;;;2.20;1.20;;;;;;;7.82;69.66;99679.19;10491323;28;20124;-59
2022/04/17 09:25:12;;;;;;;2.80;1.15;;;;;;;7.89;66.75;99672.38;10489378;28;20040;-59
2022/04/17 09:30:27;;;;;;;1.42;1.23;;;;;;;8.11;77.54;99668.97;10488837;28;20560;-58
2022/04/17 09:35:30;;;;;;;1.20;1.10;;;;;;;8.27;75.88;99651.69;10485763;28;20062;-58
2022/04/17 09:40:36;;;;;;;2.90;1.27;;;;;;;8.54;71.60;99642.53;10302002;28;5002492;-57
2022/04/17 09:46:00;;;;;;;1.27;1.17;;;;;;;8.76;67.87;99625.63;10475314;28;20523;-58
2022/04/17 09:51:22;;;;;;;2.00;1.20;;;;;;;8.99;62.05;99621.09;10489501;28;20049;-58
2022/04/17 09:56:33;;;;;;;1.40;0.90;;;;;;;9.13;58.21;99636.13;10489162;28;20067;-58
2022/04/17 10:01:38;;;;;;;3.30;1.00;;;;;;;9.35;62.01;99637.97;10493899;28;20051;-56
2022/04/17 10:06:41;;;;;;;2.65;1.08;;;;;;;9.50;61.95;99629.66;10488268;28;20047;-58
2022/04/17 10:11:45;;;;;;;1.27;0.90;;;;;;;9.80;58.81;99620.03;10490466;28;20158;-56
2022/04/17 10:16:51;;;;;;;1.60;1.20;;;;;;;9.99;56.92;99608.59;10491597;28;20044;-58
2022/04/17 10:21:58;;;;;;;1.60;1.10;;;;;;;9.85;56.82;99621.34;10490507;28;20048;-59
2022/04/17 10:27:03;;;;;;;0.75;0.75;;;;;;;9.91;56.48;99621.84;10490962;28;20523;-58
2022/04/17 10:32:26;;;;;;;0.63;0.60;;;;;;;10.11;55.08;99610.25;10488112;28;20044;-59
2022/04/17 10:38:08;;;;;;;1.20;1.00;;;;;;;10.17;51.35;99593.56;10490760;28;20806;-59
2022/04/17 10:43:10;;;;;;;;;;;;;;;10.46;50.47;99590.28;10447504;28;20168;-55
2022/04/17 10:48:27;;;;;;;0.75;0.70;;;;;;;10.70;51.45;99586.44;10490904;28;19931;-59
2022/04/17 10:53:31;;;;;;;2.13;0.80;;;;;;;10.97;54.75;99568.84;10490763;28;20044;-57
2022/04/17 10:58:35;;;;;;;0.70;0.70;;;;;;;11.18;52.19;99566.06;10496514;28;20044;-57
2022/04/17 11:03:52;;;;;;;0.55;0.55;;;;;;;11.19;48.15;99561.53;10497134;28;20492;-59
2022/04/17 11:08:58;;;;;;;0.98;0.75;;;;;;;11.19;49.21;99548.88;10498598;28;21156;-57
2022/04/17 11:14:12;;;;;;;1.50;0.70;;;;;;;11.35;47.65;99545.66;10495978;28;20177;-58
2022/04/17 11:19:18;;;;;;;1.17;0.70;;;;;;;11.52;52.07;99538.75;10497286;28;20087;-58
2022/04/17 11:24:22;;;;;;;0.90;0.90;;;;;;;11.68;53.25;99549.00;10497674;28;20087;-58
2022/04/17 11:29:36;;;;;;;0.60;0.60;;;;;;;11.78;47.79;99538.19;10497287;28;20048;-57
2022/04/17 11:34:43;;;;;;;0.65;0.60;;;;;;;11.86;49.53;99540.19;10498178;28;20625;-58
2022/04/17 11:39:46;;;;;;;1.35;0.80;;;;;;;11.90;49.76;99535.34;10497378;28;20120;-60
2022/04/17 11:44:50;;;;;;;0.80;0.60;;;;;;;11.87;50.34;99528.38;10497338;28;20066;-58
2022/04/17 11:49:54;;;;;;;0.77;0.75;;;;;;;11.85;51.61;99516.88;10496546;28;20407;-55
2022/04/17 11:55:00;;;;;;;0.85;0.82;;;;;;;12.04;50.66;99509.81;10497229;28;20045;-55
2022/04/17 12:00:05;;;;;;;2.35;0.80;;;;;;;11.96;49.11;99502.38;10497978;28;20043;-59
2022/04/17 12:05:12;;;;;;;0.98;0.77;;;;;;;12.20;51.06;99495.69;10496268;28;20416;-58
2022/04/17 12:10:15;;;;;;;1.15;0.75;;;;;;;12.05;47.70;99488.03;10494934;28;20452;-59
2022/04/17 12:15:19;;;;;;;0.73;0.52;;;;;;;12.10;47.16;99482.19;10495900;28;20041;-58
2022/04/17 12:20:23;;;;;;;1.88;0.68;;;;;;;12.36;51.03;99478.88;10480594;28;20060;-58
2022/04/17 12:25:27;;;;;;;1.13;0.60;;;;;;;12.56;50.90;99461.56;10496995;28;20123;-59
2022/04/17 12:30:30;;;;;;;0.82;0.60;;;;;;;12.88;51.52;99454.03;10495514;28;20050;-59
2022/04/17 12:35:35;;;;;;;1.17;0.85;;;;;;;12.99;48.80;99442.16;10495912;28;20036;-59
2022/04/17 12:40:42;;;;;;;0.88;0.60;;;;;;;13.23;51.06;99438.88;10495561;28;20050;-57
2022/04/17 12:45:56;;;;;;;2.05;0.57;;;;;;;13.39;48.17;99430.94;10496360;28;20474;-60
2022/04/17 12:51:03;;;;;;;1.25;0.80;;;;;;;13.67;49.30;99440.84;10493922;28;20059;-59
2022/04/17 12:56:08;;;;;;;1.15;0.50;;;;;;;14.00;51.09;99422.13;10483154;28;20135;-57
2022/04/17 13:01:21;;;;;;;1.17;0.90;;;;;;;14.27;51.36;99412.97;10495445;28;20140;-58
2022/04/17 13:06:32;;;;;;;0.60;0.60;;;;;;;13.63;48.60;99398.81;10494275;28;20044;-58
2022/04/17 13:11:36;;;;;;;2.15;0.60;;;;;;;14.08;48.34;99397.78;10496062;28;20052;-59
2022/04/17 13:16:51;;;;;;;1.10;0.60;;;;;;;14.04;44.37;99388.28;10476961;28;20044;-58
2022/04/17 13:21:57;;;;;;;0.85;0.60;;;;;;;14.23;45.41;99379.06;10492506;28;20061;-57
2022/04/17 13:27:00;;;;;;;0.50;0.50;;;;;;;14.30;45.10;99368.41;10491764;28;20032;-57
2022/04/17 13:32:03;;;;;;;0.65;0.60;;;;;;;14.22;45.67;99371.09;10491093;28;20047;-58
2022/04/17 13:42:28;;;;;;;1.02;0.60;;;;;;;14.29;46.13;99355.88;10495775;28;20040;-57
2022/04/17 13:47:31;;;;;;;0.55;0.55;;;;;;;14.64;46.40;99340.44;10492357;28;20492;-57
2022/04/17 13:52:36;;;;;;;0.50;0.50;;;;;;;14.61;44.08;99335.34;10492310;28;20129;-57
2022/04/17 13:57:39;;;;;;;0.43;0.38;;;;;;;14.88;46.05;99333.38;10493083;28;20393;-56
2022/04/17 14:02:42;;;;;;;1.48;0.40;;;;;;;15.01;45.40;99322.91;10491297;28;20049;-58
2022/04/17 14:07:48;;;;;;;0.95;0.40;;;;;;;14.91;43.59;99319.50;10491159;28;20052;-60
2022/04/17 14:12:51;;;;;;;0.88;0.55;;;;;;;15.07;43.38;99305.94;10493754;28;20052;-57
2022/04/17 14:17:54;;;;;;;0.65;0.50;;;;;;;15.17;43.87;99304.94;10492090;28;21017;-57
2022/04/17 14:22:58;;;;;;;0.80;0.40;;;;;;;15.66;44.56;99293.16;10493331;28;20058;-57
2022/04/17 14:28:02;;;;;;;0.77;0.52;;;;;;;15.88;44.41;99286.19;10491740;28;20420;-58
2022/04/17 14:33:05;;;;;;;0.75;0.40;;;;;;;15.94;42.74;99280.03;10492076;28;20091;-58
2022/04/17 14:38:09;;;;;;;0.90;0.40;;;;;;;16.04;43.50;99268.97;10491147;28;20052;-58
2022/04/17 14:43:12;;;;;;;0.45;0.40;;;;;;;16.61;43.39;99259.69;10491023;28;20885;-58
2022/04/17 14:48:15;;;;;;;0.60;0.60;;;;;;;16.94;44.13;99264.94;10491023;28;20048;-61
2022/04/17 14:53:19;;;;;;;1.15;0.45;;;;;;;17.22;43.94;99263.50;10494139;28;20045;-58
2022/04/17 14:58:23;;;;;;;0.82;0.50;;;;;;;16.90;42.43;99249.13;10490067;28;20054;-59
2022/04/17 15:03:26;;;;;;;1.33;0.70;;;;;;;16.83;43.24;99238.09;10492960;28;20140;-58
2022/04/17 15:08:32;;;;;;;1.33;0.60;;;;;;;16.63;41.81;99241.31;10492084;28;20051;-57
2022/04/17 15:13:39;;;;;;;0.85;0.50;;;;;;;16.86;43.23;99237.75;10490929;28;21128;-58
2022/04/17 15:18:43;;;;;;;1.55;0.57;;;;;;;16.68;42.22;99229.03;10488250;28;20049;-57
2022/04/17 15:23:47;;;;;;;0.60;0.40;;;;;;;16.68;42.04;99218.16;10490505;28;20416;-59
2022/04/17 15:28:52;;;;;;;0.60;0.40;;;;;;;16.47;44.09;99220.47;10491305;28;20054;-60
2022/04/17 15:33:56;;;;;;;0.70;0.50;;;;;;;16.73;41.72;99218.47;10477151;28;20429;-59
2022/04/17 15:39:01;;;;;;;0.68;0.55;;;;;;;16.32;42.19;99206.00;10492210;28;20056;-61
2022/04/17 15:49:25;;;;;;;0.95;0.52;;;;;;;16.00;42.30;99208.69;10496899;28;20052;-60
2022/04/17 15:54:30;;;;;;;0.40;0.40;;;;;;;15.90;43.22;99199.06;10494484;28;20048;-57
2022/04/17 15:59:33;;;;;;;0.90;0.50;;;;;;;15.67;44.12;99197.94;10497671;28;20123;-59
2022/04/17 16:04:36;;;;;;;1.23;0.47;;;;;;;15.95;44.70;99192.06;10496673;28;20519;-57
2022/04/17 16:09:41;;;;;;;1.40;0.60;;;;;;;15.81;43.90;99192.78;10496917;28;20123;-59
2022/04/17 16:14:44;;;;;;;0.50;0.50;;;;;;;15.88;43.78;99199.25;10496946;28;20133;-55
2022/04/17 16:19:48;;;;;;;1.15;0.65;;;;;;;16.06;44.50;99195.41;10496781;28;20059;-57
2022/04/17 16:24:52;;;;;;;0.70;0.50;;;;;;;15.95;44.69;99192.06;10494793;28;21060;-60
2022/04/17 16:29:56;;;;;;;1.15;0.65;;;;;;;15.91;45.85;99182.59;10495665;28;20048;-56
2022/04/17 16:34:59;;;;;;;0.68;0.60;;;;;;;16.07;44.91;99203.41;10496427;28;20539;-56
2022/04/17 16:40:06;;;;;;;1.05;0.80;;;;;;;16.44;45.68;99181.94;10496271;28;20820;-55
2022/04/17 16:45:10;;;;;;;2.45;0.70;;;;;;;16.68;44.61;99177.34;10494688;28;20048;-58
2022/04/17 16:50:13;;;;;;;1.13;0.60;;;;;;;16.73;43.93;99174.94;10497170;28;20058;-59
2022/04/17 16:55:18;;;;;;;0.73;0.50;;;;;;;16.58;44.41;99172.16;10493893;28;20147;-56
2022/04/17 17:00:21;;;;;;;0.93;0.60;;;;;;;16.32;44.07;99167.91;10491550;28;20066;-58
2022/04/17 17:05:24;;;;;;;1.05;0.70;;;;;;;16.40;46.85;99169.75;10494231;28;20044;-58
2022/04/17 17:10:28;;;;;;;0.70;0.60;;;;;;;16.46;46.81;99155.41;10482514;28;20050;-59
2022/04/17 17:15:31;;;;;;;0.88;0.73;;;;;;;16.07;46.22;99159.91;10477978;28;20055;-58
2022/04/17 17:20:34;;;;;;;0.80;0.70;;;;;;;15.95;45.50;99155.91;10497608;28;20091;-55
2022/04/17 17:25:38;;;;;;;2.35;0.60;;;;;;;15.68;45.58;99158.03;10494143;28;20037;-58
2022/04/17 17:30:42;;;;;;;1.50;0.65;;;;;;;15.19;47.25;99151.72;10487492;28;20044;-58
2022/04/17 17:35:45;;;;;;;0.80;0.80;;;;;;;14.69;48.05;99160.97;10530699;28;20036;-61
2022/04/17 17:40:49;;;;;;;0.98;0.57;;;;;;;14.13;48.79;99153.41;10550080;28;20764;-61
2022/04/17 17:45:53;;;;;;;0.85;0.60;;;;;;;13.50;48.99;99150.19;10551360;28;20054;-59
2022/04/17 17:50:56;;;;;;;1.20;0.70;;;;;;;12.98;51.37;99151.03;10551359;28;20036;-60
2022/04/17 17:56:01;;;;;;;0.80;0.60;;;;;;;12.54;52.59;99143.78;10551407;28;20064;-62
2022/04/17 18:01:06;;;;;;;0.65;0.65;;;;;;;12.05;53.94;99139.63;10530912;28;20049;-59
2022/04/17 18:06:09;;;;;;;1.27;0.73;;;;;;;11.75;55.17;99138.94;10492296;28;20044;-57
2022/04/17 18:16:37;;;;;;;1.42;0.70;;;;;;;11.00;58.58;99145.19;10487006;28;20040;-58
2022/04/17 18:21:41;;;;;;;1.08;0.73;;;;;;;10.77;60.96;99142.84;10491113;28;20063;-60
2022/04/17 18:26:46;;;;;;;0.70;0.70;;;;;;;10.57;64.47;99143.88;10489817;28;20044;-61
2022/04/17 18:31:49;;;;;;;1.13;0.90;;;;;;;10.29;67.74;99149.13;10480274;28;20052;-58
2022/04/17 18:36:52;;;;;;;0.73;0.73;;;;;;;10.05;71.02;99150.38;10490578;28;20040;-59
2022/04/17 18:41:57;;;;;;;1.23;0.95;;;;;;;9.90;75.20;99149.06;10493156;28;20068;-59
2022/04/17 18:47:00;;;;;;;2.92;1.15;;;;;;;9.68;75.99;99142.94;10467963;28;20055;-60
2022/04/17 18:52:03;;;;;;;1.70;0.90;;;;;;;9.56;77.07;99150.25;10487587;28;20154;-62
2022/04/17 18:57:08;;;;;;;1.50;1.15;;;;;;;9.49;76.21;99149.09;10488904;28;20051;-60
2022/04/17 19:02:11;;;;;;;1.85;1.33;;;;;;;9.39;76.69;99144.56;10487542;28;20047;-61
2022/04/17 19:07:14;;;;;;;1.60;1.10;;;;;;;9.28;77.35;99144.66;10487779;28;20033;-58
2022/04/17 19:17:40;;;;;;;1.60;1.10;;;;;;;9.07;78.28;99150.06;10490853;28;20039;-58
2022/04/17 19:22:45;;;;;;;1.23;0.90;;;;;;;8.97;78.64;99141.09;10496930;28;20040;-59
2022/04/17 19:27:50;;;;;;;2.03;0.80;;;;;;;8.89;79.24;99134.53;10495689;28;20504;-59
2022/04/17 19:38:13;;;;;;;0.98;0.88;;;;;;;8.74;81.09;99130.50;10495218;28;20064;-58
2022/04/17 19:43:18;;;;;;;1.67;1.10;;;;;;;8.64;81.70;99123.22;10495984;28;20419;-59
2022/04/17 19:48:21;;;;;;;1.45;1.13;;;;;;;8.61;83.25;99126.19;10495719;28;20060;-60
2022/04/17 19:53:24;;;;;;;1.63;1.10;;;;;;;8.57;85.17;99121.22;10495828;28;20052;-59
2022/04/17 19:58:28;;;;;;;1.48;1.00;;;;;;;8.53;87.23;99119.75;10494697;28;20515;-59
2022/04/17 20:03:31;;;;;;;2.30;1.20;;;;;;;8.42;94.33;99115.25;10492721;28;20126;-60
2022/04/17 20:08:34;;;;;;;2.65;0.85;;;;;;;8.29;95.53;99108.25;10494368;28;20048;-59
2022/04/17 20:13:40;;;;;;;1.20;1.10;;;;;;;8.21;98.53;99109.91;10495137;28;20042;-58
2022/04/17 20:18:45;;;;;;;1.35;1.15;;;;;;;8.09;100.00;99114.44;10493875;28;20044;-61
2022/04/17 20:23:48;;;;;;;2.75;1.83;;;;;;;7.94;100.00;99109.38;10412371;28;20053;-57
2022/04/17 20:28:53;;;;;;;2.50;1.40;;;;;;;7.63;100.00;99089.63;10409732;28;20052;-60
2022/04/17 20:33:56;;;;;;;2.67;1.63;;;;;;;7.52;100.00;99077.06;10409901;28;20049;-61
2022/04/17 20:38:59;;;;;;;1.95;1.10;;;;;;;7.51;100.00;99076.25;10412412;28;20127;-61
2022/04/17 20:54:45;;;;;;;1.92;1.13;;;;;;;7.43;100.00;99053.72;10409985;28;20033;-59
2022/04/17 20:59:49;;;;;;;1.42;1.00;;;;;;;7.37;100.00;99047.03;10412192;28;20472;-60
2022/04/17 21:04:52;;;;;;;1.20;0.93;;;;;;;7.36;100.00;99050.66;10410076;28;20047;-60
2022/04/17 21:09:55;;;;;;;1.70;1.08;;;;;;;7.24;100.00;99044.47;10431428;28;21288;-59
2022/04/17 21:14:59;;;;;;;1.10;1.00;;;;;;;7.14;100.00;99046.19;10410629;28;20041;-60
2022/04/17 21:20:02;;;;;;;1.73;1.10;;;;;;;7.05;100.00;99054.00;10431624;28;20056;-59
2022/04/17 21:25:06;;;;;;;1.10;1.00;;;;;;;7.03;100.00;99061.31;10491925;28;21406;-60
2022/04/17 21:30:11;;;;;;;1.45;1.10;;;;;;;7.01;100.00;99051.69;10492243;28;20042;-59
2022/04/17 21:35:14;;;;;;;1.15;1.05;;;;;;;7.01;100.00;99052.53;10474897;28;20342;-61
2022/04/17 21:40:17;;;;;;;1.27;1.10;;;;;;;6.94;100.00;99046.81;10488314;28;20600;-64
2022/04/17 21:45:21;;;;;;;1.60;1.20;;;;;;;6.72;100.00;99042.34;10489183;28;20119;-59
2022/04/17 21:50:24;;;;;;;1.67;1.23;;;;;;;6.54;100.00;99046.44;10491107;28;20065;-60
2022/04/17 21:55:27;;;;;;;2.58;1.27;;;;;;;6.42;100.00;99043.75;10491465;28;20059;-61
2022/04/17 22:05:59;;;;;;;1.40;1.30;;;;;;;6.14;100.00;99035.19;10592894;27;21083;-62
2022/04/17 22:11:02;;;;;;;1.33;1.20;;;;;;;6.13;100.00;99028.16;10594683;27;20051;-59
2022/04/17 22:16:06;;;;;;;1.98;1.35;;;;;;;6.09;100.00;99029.34;10600913;27;20071;-61
2022/04/17 22:21:10;;;;;;;1.58;1.15;;;;;;;6.08;100.00;99022.28;10599426;27;20042;-56
2022/04/17 22:26:13;;;;;;;1.55;1.30;;;;;;;5.97;100.00;99019.53;10601978;27;20096;-60
2022/04/17 22:31:17;;;;;;;1.52;1.20;;;;;;;5.83;100.00;99024.13;10602078;27;20757;-60
2022/04/17 22:36:21;;;;;;;1.42;1.10;;;;;;;5.77;100.00;99024.59;10601341;27;20495;-59
2022/04/17 22:41:24;;;;;;;1.50;1.20;;;;;;;5.65;100.00;99026.34;10601486;27;20144;-62
2022/04/17 22:46:27;;;;;;;1.60;1.20;;;;;;;5.50;100.00;99025.69;10603052;27;20192;-59
2022/04/17 22:51:32;;;;;;;1.45;1.30;;;;;;;5.43;100.00;99029.78;10599209;27;20043;-62
2022/04/17 22:56:35;;;;;;;1.40;1.30;;;;;;;5.29;100.00;99028.16;10596475;27;20047;-58
2022/04/17 23:01:38;;;;;;;2.53;2.00;;;;;;;5.18;100.00;99023.56;10580943;27;20055;-58
2022/04/17 23:06:42;;;;;;;2.42;2.20;;;;;;;5.05;100.00;99022.75;10600068;27;20047;-59
2022/04/17 23:11:46;;;;;;;2.88;1.70;;;;;;;5.02;100.00;99018.50;10600514;27;20077;-59
2022/04/17 23:16:49;;;;;;;2.00;1.80;;;;;;;5.00;100.00;99020.44;10573250;27;20043;-59
2022/04/17 23:21:53;;;;;;;1.50;1.38;;;;;;;4.98;100.00;99013.50;10570563;27;20121;-57
2022/04/17 23:26:56;;;;;;;2.45;1.40;;;;;;;4.99;100.00;99008.03;10571235;27;20131;-57
2022/04/17 23:31:59;;;;;;;1.98;1.40;;;;;;;4.99;100.00;99004.53;10568833;27;20044;-61
2022/04/17 23:37:04;;;;;;;2.22;1.23;;;;;;;4.96;100.00;99002.06;10569974;27;20067;-59
2022/04/17 23:42:08;;;;;;;1.40;1.30;;;;;;;4.94;100.00;98987.00;10381469;27;5001956;-59
2022/04/17 23:47:11;;;;;;;3.05;1.40;;;;;;;4.89;100.00;98980.31;10554282;27;20061;-56
2022/04/17 23:52:15;;;;;;;2.35;1.40;;;;;;;4.87;100.00;98975.09;10570013;27;20513;-57
2022/04/17 23:57:18;;;;;;;1.90;1.38;;;;;;;4.83;100.00;98976.25;10569040;27;20125;-60
